createdAt,value
2023-03-22T00:01:42.190Z,26.32
2023-03-22T00:05:42.315Z,26.31
2023-03-22T00:09:42.401Z,26.32
2023-03-22T00:13:42.516Z,26.34
2023-03-22T00:17:42.592Z,26.34
2023-03-22T00:21:42.677Z,26.31
2023-03-22T00:25:42.773Z,26.32
2023-03-22T00:29:42.802Z,26.31
2023-03-22T00:33:42.902Z,26.34
2023-03-22T00:37:43.015Z,26.32
2023-03-22T00:41:43.080Z,26.32
2023-03-22T00:45:43.260Z,26.34
2023-03-22T00:49:43.341Z,26.31
2023-03-22T00:53:43.902Z,26.34
2023-03-22T00:57:43.524Z,26.34
2023-03-22T01:01:43.660Z,26.32
2023-03-22T01:05:43.752Z,26.31
2023-03-22T01:09:43.913Z,26.32
2023-03-22T01:13:44.058Z,26.34
2023-03-22T01:17:44.160Z,26.32
2023-03-22T01:21:44.302Z,26.32
2023-03-22T01:25:44.434Z,26.32
2023-03-22T01:29:44.560Z,26.35
2023-03-22T01:33:44.708Z,26.31
2023-03-22T01:37:44.848Z,26.31
2023-03-22T01:41:44.872Z,26.34
2023-03-22T01:45:45.039Z,26.31
2023-03-22T01:49:45.124Z,26.32
2023-03-22T01:53:45.228Z,26.31
2023-03-22T01:57:45.301Z,26.35
2023-03-22T02:01:45.415Z,26.32
2023-03-22T02:05:45.449Z,26.35
2023-03-22T02:09:45.458Z,26.31
2023-03-22T02:13:45.544Z,26.32
2023-03-22T02:17:45.639Z,26.34
2023-03-22T02:21:45.711Z,26.34
2023-03-22T02:25:45.779Z,26.35
2023-03-22T02:29:45.837Z,26.32
2023-03-22T02:33:45.901Z,26.31
2023-03-22T02:37:46.034Z,26.34
2023-03-22T02:41:46.120Z,26.35
2023-03-22T02:45:46.265Z,26.34
2023-03-22T02:49:46.364Z,26.32
2023-03-22T02:53:46.419Z,26.31
2023-03-22T02:57:46.537Z,26.32
2023-03-22T03:01:46.615Z,26.32
2023-03-22T03:05:46.756Z,26.31
2023-03-22T03:09:46.819Z,26.31
2023-03-22T03:13:46.847Z,26.32
2023-03-22T03:17:47.027Z,26.32
2023-03-22T03:21:47.136Z,26.32
2023-03-22T03:25:47.242Z,26.31
2023-03-22T03:29:47.325Z,26.31
2023-03-22T03:33:47.398Z,26.30
2023-03-22T03:37:47.406Z,26.31
2023-03-22T03:41:47.479Z,26.30
2023-03-22T03:45:47.561Z,26.32
2023-03-22T03:49:47.610Z,26.31
2023-03-22T03:53:47.709Z,26.31
2023-03-22T03:57:47.730Z,26.32
2023-03-22T04:01:47.793Z,26.32
2023-03-22T04:05:47.957Z,26.34
2023-03-22T04:09:48.041Z,26.32
2023-03-22T04:13:48.190Z,26.31
2023-03-22T04:17:48.282Z,26.31
2023-03-22T04:21:48.411Z,26.30
2023-03-22T04:25:48.457Z,26.32
2023-03-22T04:29:48.533Z,26.32
2023-03-22T04:33:48.637Z,26.32
2023-03-22T04:37:48.786Z,26.30
2023-03-22T04:41:48.886Z,26.30
2023-03-22T04:45:49.000Z,26.31
2023-03-22T04:49:49.018Z,26.32
2023-03-22T04:53:49.105Z,26.28
2023-03-22T04:57:49.252Z,26.30
2023-03-22T05:01:49.369Z,26.30
2023-03-22T05:05:49.456Z,26.30
2023-03-22T05:09:49.495Z,26.28
2023-03-22T05:13:49.537Z,26.30
2023-03-22T05:17:49.641Z,26.30
2023-03-22T05:21:49.714Z,26.30
2023-03-22T05:25:49.797Z,26.28
2023-03-22T05:29:49.858Z,26.28
2023-03-22T05:33:49.944Z,26.27
2023-03-22T05:37:50.060Z,26.26
2023-03-22T05:41:50.090Z,26.27
2023-03-22T05:45:50.147Z,26.26
2023-03-22T05:49:50.195Z,26.31
2023-03-22T05:53:50.254Z,26.35
2023-03-22T05:57:50.333Z,26.40
2023-03-22T06:01:50.461Z,26.55
2023-03-22T06:05:50.600Z,26.63
2023-03-22T06:09:50.738Z,26.72
2023-03-22T06:13:50.879Z,26.83
2023-03-22T06:17:51.085Z,26.98
2023-03-22T06:21:51.254Z,27.16
2023-03-22T06:25:51.414Z,27.33
2023-03-22T06:29:51.563Z,27.19
2023-03-22T06:33:52.649Z,27.13
2023-03-22T06:37:51.784Z,27.17
2023-03-22T06:41:51.932Z,27.26
2023-03-22T06:45:52.476Z,27.30
2023-03-22T06:49:52.072Z,27.41
2023-03-22T06:53:52.218Z,27.54
2023-03-22T06:57:52.480Z,27.61
2023-03-22T07:01:52.595Z,27.62
2023-03-22T07:05:52.835Z,27.65
2023-03-22T07:09:53.002Z,27.65
2023-03-22T07:13:53.147Z,27.71
2023-03-22T07:17:53.312Z,27.70
2023-03-22T07:21:53.407Z,27.84
2023-03-22T07:25:53.601Z,27.84
2023-03-22T07:29:53.796Z,27.83
2023-03-22T07:33:54.013Z,27.68
2023-03-22T07:37:54.178Z,27.64
2023-03-22T07:41:54.388Z,27.67
2023-03-22T07:45:54.530Z,27.84
2023-03-22T07:49:54.700Z,27.88
2023-03-22T07:53:54.804Z,27.94
2023-03-22T07:57:54.916Z,27.99
2023-03-22T08:01:55.063Z,28.05
2023-03-22T08:05:55.174Z,28.11
2023-03-22T08:09:55.364Z,28.11
2023-03-22T08:13:55.532Z,28.13
2023-03-22T08:17:55.784Z,28.16
2023-03-22T08:21:55.925Z,28.09
2023-03-22T08:25:56.477Z,28.11
2023-03-22T08:29:56.247Z,28.08
2023-03-22T08:33:56.402Z,28.05
2023-03-22T08:37:56.576Z,27.99
2023-03-22T08:41:56.992Z,27.98
2023-03-22T08:45:56.707Z,27.89
2023-03-22T08:49:56.998Z,27.88
2023-03-22T08:53:56.791Z,27.71
2023-03-22T08:57:56.988Z,27.32
2023-03-22T09:01:57.204Z,27.13
2023-03-22T09:05:57.269Z,26.96
2023-03-22T09:09:57.350Z,26.81
2023-03-22T09:13:57.477Z,26.75
2023-03-22T09:17:57.589Z,26.98
2023-03-22T09:21:58.005Z,27.20
2023-03-22T09:25:57.963Z,27.36
2023-03-22T09:29:58.102Z,27.37
2023-03-22T09:33:58.156Z,27.37
2023-03-22T09:37:58.331Z,27.32
2023-03-22T09:41:58.509Z,27.17
2023-03-22T09:45:58.741Z,27.36
2023-03-22T09:49:58.761Z,27.56
2023-03-22T09:53:58.841Z,27.70
2023-03-22T09:57:58.996Z,27.84
2023-03-22T10:01:59.372Z,27.92
2023-03-22T10:05:59.541Z,27.98
2023-03-22T10:09:59.336Z,28.09
2023-03-22T10:13:59.435Z,28.13
2023-03-22T10:17:59.550Z,28.20
2023-03-22T10:21:59.610Z,28.23
2023-03-22T10:25:59.715Z,28.28
2023-03-22T10:30:01.062Z,28.09
2023-03-22T10:33:59.966Z,28.11
2023-03-22T10:38:00.139Z,28.16
2023-03-22T10:42:00.581Z,28.29
2023-03-22T10:46:00.386Z,28.39
2023-03-22T10:50:00.536Z,28.50
2023-03-22T10:54:00.526Z,28.52
2023-03-22T10:58:00.620Z,28.62
2023-03-22T11:02:01.083Z,28.62
2023-03-22T11:06:00.885Z,28.43
2023-03-22T11:10:01.001Z,28.04
2023-03-22T11:14:01.170Z,27.99
2023-03-22T11:19:22.954Z,28.15
2023-03-22T11:23:22.950Z,28.23
2023-03-22T11:27:22.903Z,28.28
2023-03-22T11:31:22.909Z,28.15
2023-03-22T11:35:22.850Z,27.99
2023-03-22T11:39:22.786Z,27.80
2023-03-22T11:43:22.721Z,27.51
2023-03-22T11:47:22.689Z,27.05
2023-03-22T11:51:22.647Z,27.10
2023-03-22T11:55:22.620Z,26.78
2023-03-22T11:59:22.591Z,26.63
2023-03-22T12:03:22.671Z,26.61
2023-03-22T12:07:22.511Z,26.52
2023-03-22T12:11:22.700Z,26.51
2023-03-22T12:15:22.438Z,26.77
2023-03-22T12:19:22.700Z,26.92
2023-03-22T12:23:22.547Z,27.05
2023-03-22T12:27:22.628Z,27.14
2023-03-22T12:31:22.809Z,27.23
2023-03-22T12:35:22.869Z,27.17
2023-03-22T12:39:23.001Z,27.30
2023-03-22T12:43:23.090Z,27.34
2023-03-22T12:47:23.201Z,27.33
2023-03-22T12:51:23.350Z,27.29
2023-03-22T12:55:23.703Z,27.32
2023-03-22T12:59:23.578Z,27.33
2023-03-22T13:03:23.761Z,27.34
2023-03-22T13:07:24.251Z,27.36
2023-03-22T13:11:24.216Z,27.37
2023-03-22T13:15:31.662Z,27.37
2023-03-22T13:19:24.982Z,27.41
2023-03-22T13:23:24.020Z,27.44
2023-03-22T13:27:23.917Z,27.49
2023-03-22T13:31:24.062Z,27.56
2023-03-22T13:35:24.212Z,27.64
2023-03-22T13:39:24.283Z,27.67
2023-03-22T13:43:24.343Z,27.67
2023-03-22T13:47:24.572Z,27.71
2023-03-22T13:51:24.595Z,27.72
2023-03-22T13:55:24.633Z,27.72
2023-03-22T13:59:24.691Z,27.74
2023-03-22T14:03:24.885Z,27.72
2023-03-22T14:07:24.863Z,27.71
2023-03-22T14:11:24.950Z,27.70
2023-03-22T14:15:24.969Z,27.74
2023-03-22T14:19:25.050Z,27.68
2023-03-22T14:48:25.776Z,27.56
2023-03-22T14:52:25.765Z,27.53
2023-03-22T14:56:26.072Z,27.51
2023-03-22T15:00:26.083Z,27.51
2023-03-22T15:04:25.999Z,27.47
2023-03-22T15:08:26.004Z,27.47
2023-03-22T15:12:25.531Z,27.44
2023-03-22T15:16:25.507Z,27.43
2023-03-22T15:20:25.495Z,27.39
2023-03-22T15:24:25.435Z,27.39
2023-03-22T15:28:25.407Z,27.36
2023-03-22T15:32:25.370Z,27.33
2023-03-22T15:36:25.316Z,27.36
2023-03-22T15:40:25.281Z,27.32
2023-03-22T15:44:25.219Z,27.30
2023-03-22T15:48:25.232Z,27.30
2023-03-22T15:52:25.137Z,27.26
2023-03-22T15:56:29.078Z,27.26
2023-03-22T16:00:26.089Z,27.25
2023-03-22T16:04:25.031Z,27.22
2023-03-22T16:08:25.014Z,27.22
2023-03-22T16:12:25.075Z,27.22
2023-03-22T16:16:26.079Z,27.19
2023-03-22T16:20:25.341Z,27.16
2023-03-22T16:24:25.395Z,27.16
2023-03-22T16:28:25.509Z,27.13
2023-03-22T16:32:25.616Z,27.11
2023-03-22T16:36:25.718Z,27.11
2023-03-22T16:40:25.771Z,27.10
2023-03-22T16:44:25.924Z,27.09
2023-03-22T16:48:26.068Z,27.06
2023-03-22T16:52:26.314Z,27.06
2023-03-22T16:56:26.359Z,27.05
2023-03-22T17:00:26.523Z,27.03
2023-03-22T17:04:26.726Z,27.02
2023-03-22T17:08:26.906Z,27.02
2023-03-22T17:12:26.907Z,26.99
2023-03-22T17:16:28.432Z,26.99
2023-03-22T17:20:27.084Z,26.98
2023-03-22T17:24:27.158Z,26.95
2023-03-22T17:28:28.151Z,26.93
2023-03-22T17:32:49.721Z,26.93
2023-03-22T17:36:28.303Z,26.90
2023-03-22T17:40:33.073Z,26.92
2023-03-22T17:44:28.218Z,26.89
2023-03-22T17:48:27.230Z,26.88
2023-03-22T17:52:27.276Z,26.86
2023-03-22T17:57:01.021Z,26.86
2023-03-22T18:00:28.604Z,26.83
2023-03-22T18:04:27.430Z,26.86
2023-03-22T18:08:28.847Z,26.83
2023-03-22T18:12:27.329Z,26.81
2023-03-22T18:16:52.695Z,26.85
2023-03-22T18:20:51.038Z,26.81
2023-03-22T18:24:28.407Z,26.79
2023-03-22T18:28:27.398Z,26.81
2023-03-22T18:36:28.350Z,26.78
2023-03-22T18:41:07.450Z,26.79
2023-03-22T18:44:28.225Z,26.78
2023-03-22T18:48:27.170Z,26.77
2023-03-22T18:52:41.642Z,26.78
2023-03-22T18:56:32.258Z,26.75
2023-03-22T19:00:27.614Z,26.72
2023-03-22T19:04:27.637Z,26.74
2023-03-22T19:08:29.044Z,26.75
2023-03-22T19:12:27.594Z,26.74
2023-03-22T19:16:27.598Z,26.71
2023-03-22T19:20:38.317Z,26.74
2023-03-22T19:24:28.604Z,26.71
2023-03-22T19:28:27.379Z,26.69
2023-03-22T19:32:27.601Z,26.69
2023-03-22T19:36:27.638Z,26.68
2023-03-22T19:44:28.118Z,26.69
2023-03-22T19:48:27.605Z,26.67
2023-03-22T19:52:27.525Z,26.69
2023-03-22T19:56:27.494Z,26.69
2023-03-22T20:00:44.933Z,26.68
2023-03-22T20:04:28.428Z,26.67
2023-03-22T20:08:27.366Z,26.69
2023-03-22T20:12:27.344Z,26.69
2023-03-22T20:16:27.330Z,26.68
2023-03-22T20:20:27.422Z,26.67
2023-03-22T20:24:27.583Z,26.68
2023-03-22T20:28:27.677Z,26.68
2023-03-22T20:32:27.850Z,26.67
2023-03-22T20:36:27.940Z,26.65
2023-03-22T20:40:28.087Z,26.65
2023-03-22T20:44:28.216Z,26.67
2023-03-22T20:48:28.433Z,26.65
2023-03-22T20:52:28.554Z,26.65
2023-03-22T20:56:28.667Z,26.65
2023-03-22T21:00:28.744Z,26.67
2023-03-22T21:04:28.863Z,26.65
2023-03-22T21:08:29.029Z,26.63
2023-03-22T21:12:29.117Z,26.63
2023-03-22T21:16:29.234Z,26.65
2023-03-22T21:20:32.702Z,26.65
2023-03-22T21:24:29.347Z,26.61
2023-03-22T21:28:29.294Z,26.67
2023-03-22T21:32:29.254Z,26.63
2023-03-22T21:36:29.222Z,26.63
2023-03-22T21:40:29.205Z,26.62
2023-03-22T21:44:29.180Z,26.62
2023-03-22T21:48:29.098Z,26.61
2023-03-22T21:52:29.050Z,26.63
2023-03-22T21:56:29.022Z,26.63
2023-03-22T22:00:28.968Z,26.61
2023-03-22T22:04:29.030Z,26.63
2023-03-22T22:08:29.144Z,26.62
2023-03-22T22:12:29.313Z,26.61
2023-03-22T22:16:29.399Z,26.62
2023-03-22T22:20:29.541Z,26.61
2023-03-22T22:24:29.656Z,26.59
2023-03-22T22:28:29.843Z,26.59
2023-03-22T22:32:29.981Z,26.59
2023-03-22T22:36:30.134Z,26.59
2023-03-22T22:40:30.273Z,26.58
2023-03-22T22:44:30.402Z,26.58
2023-03-22T22:48:30.518Z,26.58
2023-03-22T22:52:30.697Z,26.61
2023-03-22T22:56:30.815Z,26.61
2023-03-22T23:00:30.953Z,26.62
2023-03-22T23:04:31.106Z,26.59
2023-03-22T23:08:31.229Z,26.61
2023-03-22T23:12:31.442Z,26.59
2023-03-22T23:16:31.557Z,26.61
2023-03-22T23:20:31.667Z,26.61
2023-03-22T23:24:31.790Z,26.61
2023-03-22T23:28:31.906Z,26.61
2023-03-22T23:32:31.998Z,26.56
2023-03-22T23:36:32.144Z,26.61
2023-03-22T23:40:32.286Z,26.59
2023-03-22T23:44:32.507Z,26.59
2023-03-22T23:48:32.636Z,26.58
2023-03-22T23:52:32.741Z,26.59
2023-03-22T23:56:32.809Z,26.58
